Time;durP1;ratioP1;P1;durP2;ratioP2;P2;SDS_P1;SDS_P2;PMS_P1;PMS_P2;Temp;Humidity;BMP_temperature;BMP_pressure;BME280_temperature;BME280_humidity;BME280_pressure;Samples;Min_cycle;Max_cycle;Signal;HPM_P1;HPM_P2
2022/07/09 00:01:17;;;;;;;12.13;4.53;;;;;;;13.63;100.00;102241.81;7389432;19;20390;-61
2022/07/09 00:03:47;;;;;;;8.23;3.87;;;;;;;13.60;100.00;102241.63;7378789;19;20434;-61
2022/07/09 00:06:16;;;;;;;11.47;4.27;;;;;;;13.58;100.00;102237.22;7387164;19;20421;-60
2022/07/09 00:08:46;;;;;;;7.87;3.90;;;;;;;13.57;100.00;102241.50;7379549;19;20785;-61
2022/07/09 00:11:16;;;;;;;14.10;4.87;;;;;;;13.57;100.00;102238.00;7388988;19;20394;-63
2022/07/09 00:13:45;;;;;;;19.77;5.33;;;;;;;13.55;100.00;102224.97;7379521;19;20415;-60
2022/07/09 00:16:17;;;;;;;15.00;4.30;;;;;;;13.52;100.00;102227.38;7387313;19;20446;-61
2022/07/09 00:18:47;;;;;;;14.20;4.93;;;;;;;13.51;100.00;102230.78;7379248;19;20446;-60
2022/07/09 00:21:17;;;;;;;17.13;5.13;;;;;;;13.47;100.00;102221.97;7393705;19;20410;-60
2022/07/09 00:23:46;;;;;;;11.43;5.87;;;;;;;13.53;100.00;102213.59;7382426;19;20773;-61
2022/07/09 00:26:18;;;;;;;9.20;4.80;;;;;;;13.52;100.00;102214.41;7387237;19;20419;-60
2022/07/09 00:28:47;;;;;;;18.60;4.37;;;;;;;13.44;100.00;102203.59;7384807;19;20437;-61
2022/07/09 00:31:19;;;;;;;11.80;4.20;;;;;;;13.37;100.00;102199.81;7397348;19;20382;-60
2022/07/09 00:33:49;;;;;;;18.83;5.40;;;;;;;13.40;100.00;102193.91;7387384;19;20414;-61
2022/07/09 00:36:19;;;;;;;16.60;5.10;;;;;;;13.42;100.00;102186.19;7393492;19;20418;-61
2022/07/09 00:38:48;;;;;;;22.47;4.37;;;;;;;13.36;100.00;102182.47;7382235;19;20791;-61
2022/07/09 00:41:18;;;;;;;11.93;5.17;;;;;;;13.37;100.00;102184.25;7395981;19;20399;-61
2022/07/09 00:43:48;;;;;;;14.10;7.77;;;;;;;13.38;100.00;102182.53;7381851;19;20415;-61
2022/07/09 00:46:21;;;;;;;16.13;5.13;;;;;;;13.45;100.00;102182.06;7394036;19;20415;-62
2022/07/09 00:48:50;;;;;;;18.17;4.67;;;;;;;13.40;100.00;102185.22;7386796;19;20755;-61
2022/07/09 00:51:21;;;;;;;14.43;5.10;;;;;;;13.39;100.00;102196.41;7400059;19;20393;-61
2022/07/09 00:53:51;;;;;;;12.53;4.23;;;;;;;13.37;100.00;102192.03;7386318;19;20422;-61
2022/07/09 00:56:20;;;;;;;23.60;5.50;;;;;;;13.46;100.00;102185.56;7395382;19;20443;-60
2022/07/09 00:58:50;;;;;;;12.33;4.90;;;;;;;13.46;100.00;102190.75;7377746;19;20423;-61
2022/07/09 01:01:22;;;;;;;10.17;4.60;;;;;;;13.46;100.00;102194.25;7396031;19;20489;-61
2022/07/09 01:03:52;;;;;;;14.07;5.83;;;;;;;13.48;100.00;102190.03;7388201;19;20785;-61
2022/07/09 01:06:21;;;;;;;20.20;4.70;;;;;;;13.46;100.00;102180.38;7397306;19;20418;-61
2022/07/09 01:08:51;;;;;;;14.07;5.33;;;;;;;13.49;100.00;102180.56;7387562;19;20429;-60
2022/07/09 01:11:20;;;;;;;22.63;4.63;;;;;;;13.60;100.00;102179.41;7396244;19;20462;-62
2022/07/09 01:13:50;;;;;;;9.93;4.47;;;;;;;13.56;100.00;102179.16;7386523;19;20421;-61
2022/07/09 01:16:23;;;;;;;15.57;5.57;;;;;;;13.57;100.00;102184.44;7394025;19;20957;-61
2022/07/09 01:18:53;;;;;;;17.90;4.97;;;;;;;13.54;100.00;102179.06;7383274;19;20462;-61
2022/07/09 01:21:25;;;;;;;18.00;4.90;;;;;;;13.52;100.00;102183.31;7395775;19;20380;-61
2022/07/09 01:23:54;;;;;;;10.87;4.83;;;;;;;13.59;100.00;102187.13;7379046;19;20754;-60
2022/07/09 01:26:25;;;;;;;15.53;5.50;;;;;;;13.61;100.00;102176.03;7395576;19;20433;-60
2022/07/09 01:28:55;;;;;;;10.30;4.57;;;;;;;13.58;100.00;102181.03;7389113;19;20419;-61
2022/07/09 01:31:25;;;;;;;16.77;5.33;;;;;;;13.58;100.00;102178.44;7396931;19;20390;-61
2022/07/09 01:33:54;;;;;;;17.77;5.70;;;;;;;13.56;100.00;102187.84;7387503;19;20442;-61
2022/07/09 01:36:27;;;;;;;16.83;5.30;;;;;;;13.55;100.00;102180.88;7388971;19;20442;-61
2022/07/09 01:38:56;;;;;;;12.33;4.83;;;;;;;13.47;100.00;102180.47;7383649;19;20428;-61
2022/07/09 01:41:26;;;;;;;21.00;5.47;;;;;;;13.43;100.00;102175.03;7397055;19;20388;-60
2022/07/09 01:43:55;;;;;;;18.20;5.00;;;;;;;13.44;100.00;102169.03;7387546;19;20406;-61
2022/07/09 01:46:25;;;;;;;13.00;5.17;;;;;;;13.38;100.00;102172.16;7394786;19;20411;-61
2022/07/09 01:48:54;;;;;;;13.70;5.60;;;;;;;13.41;100.00;102166.25;7385790;19;20422;-61
2022/07/09 01:51:26;;;;;;;18.30;5.20;;;;;;;13.41;100.00;102164.56;7397061;19;20395;-60
2022/07/09 01:53:56;;;;;;;17.27;5.40;;;;;;;13.41;100.00;102156.78;7373539;19;20420;-61
2022/07/09 01:56:26;;;;;;;16.23;5.47;;;;;;;13.42;100.00;102157.66;7394583;19;20426;-61
2022/07/09 01:58:55;;;;;;;14.43;5.93;;;;;;;13.37;100.00;102160.94;7388453;19;20793;-61
2022/07/09 02:01:24;;;;;;;12.03;4.97;;;;;;;13.31;100.00;102155.41;7396429;19;20394;-60
2022/07/09 02:03:54;;;;;;;17.20;5.07;;;;;;;13.30;100.00;102151.06;7387781;19;20422;-60
2022/07/09 02:06:26;;;;;;;14.67;5.13;;;;;;;13.29;100.00;102161.31;7393105;19;21024;-60
2022/07/09 02:08:56;;;;;;;17.10;6.07;;;;;;;13.30;100.00;102151.06;7389296;19;20417;-62
2022/07/09 02:11:25;;;;;;;20.30;6.00;;;;;;;13.29;100.00;102145.78;7397023;19;20390;-61
2022/07/09 02:13:55;;;;;;;18.50;5.60;;;;;;;13.34;100.00;102145.19;7377017;19;20427;-61
2022/07/09 02:16:24;;;;;;;14.93;6.03;;;;;;;13.34;100.00;102145.19;7394097;19;20412;-61
2022/07/09 02:18:54;;;;;;;14.33;6.40;;;;;;;13.31;100.00;102138.97;7386142;19;20462;-61
2022/07/09 02:21:23;;;;;;;14.33;5.57;;;;;;;13.29;100.00;102138.91;7396005;19;20762;-60
2022/07/09 02:23:58;;;;;;;12.67;5.53;;;;;;;13.32;100.00;102140.75;7387563;19;20425;-61
2022/07/09 02:26:29;;;;;;;20.17;5.73;;;;;;;13.31;100.00;102137.28;7393920;19;20413;-60
2022/07/09 02:28:58;;;;;;;20.17;5.60;;;;;;;13.29;100.00;102136.31;7387469;19;20429;-61
2022/07/09 02:31:29;;;;;;;12.50;5.53;;;;;;;13.30;100.00;102140.69;7395470;19;20391;-61
2022/07/09 02:33:59;;;;;;;12.10;5.40;;;;;;;13.27;100.00;102137.91;7385882;19;20427;-62
2022/07/09 02:36:28;;;;;;;15.90;4.67;;;;;;;13.32;100.00;102139.06;7393168;19;20419;-61
2022/07/09 02:39:00;;;;;;;19.33;5.23;;;;;;;13.31;100.00;102138.97;7380114;19;20438;-60
2022/07/09 02:41:30;;;;;;;17.20;5.40;;;;;;;13.25;100.00;102139.53;7394937;19;20394;-60
2022/07/09 02:43:59;;;;;;;21.03;6.63;;;;;;;13.22;100.00;102134.19;7386791;19;20495;-61
2022/07/09 02:46:29;;;;;;;13.47;5.10;;;;;;;13.25;100.00;102136.94;7393202;19;20431;-61
2022/07/09 02:48:58;;;;;;;15.90;6.73;;;;;;;13.30;100.00;102137.19;7387852;19;20436;-61
2022/07/09 02:51:28;;;;;;;22.67;5.87;;;;;;;13.27;100.00;102137.91;7396022;19;20419;-61
2022/07/09 02:54:00;;;;;;;13.93;5.90;;;;;;;13.29;100.00;102144.09;7384069;19;20428;-61
2022/07/09 02:56:29;;;;;;;15.33;6.10;;;;;;;13.31;100.00;102136.38;7392840;19;20415;-60
2022/07/09 02:58:59;;;;;;;18.10;7.43;;;;;;;13.36;100.00;102146.19;7387176;19;20410;-61
2022/07/09 03:01:29;;;;;;;17.10;8.30;;;;;;;13.35;100.00;102140.91;7394250;19;20399;-60
2022/07/09 03:03:58;;;;;;;23.00;7.77;;;;;;;13.32;100.00;102141.66;7380880;19;20447;-60
2022/07/09 03:06:28;;;;;;;14.83;5.90;;;;;;;13.28;100.00;102136.22;7392604;19;20504;-61
2022/07/09 03:09:00;;;;;;;14.60;5.60;;;;;;;13.32;100.00;102136.47;7386318;19;20422;-61
2022/07/09 03:11:29;;;;;;;27.63;6.63;;;;;;;13.30;100.00;102132.91;7394106;19;20394;-60
2022/07/09 03:13:59;;;;;;;19.33;5.93;;;;;;;13.30;100.00;102132.91;7385816;19;20437;-61
2022/07/09 03:16:28;;;;;;;17.20;6.10;;;;;;;13.28;100.00;102134.50;7392254;19;20951;-61
2022/07/09 03:18:58;;;;;;;22.60;6.33;;;;;;;13.29;100.00;102131.13;7376741;19;20901;-61
2022/07/09 03:21:28;;;;;;;14.33;6.10;;;;;;;13.31;100.00;102129.50;7393717;19;20385;-60
2022/07/09 03:24:00;;;;;;;16.90;6.60;;;;;;;13.32;100.00;102125.19;7385902;19;20408;-60
2022/07/09 03:26:29;;;;;;;18.07;6.50;;;;;;;13.32;100.00;102114.81;7391975;19;20928;-61
2022/07/09 03:28:59;;;;;;;15.30;6.30;;;;;;;13.25;100.00;102118.81;7384294;19;20410;-60
2022/07/09 03:31:28;;;;;;;16.37;5.93;;;;;;;13.22;100.00;102114.34;7393387;19;20384;-62
2022/07/09 03:33:58;;;;;;;22.77;5.93;;;;;;;13.16;100.00;102108.84;7381470;19;20418;-60
2022/07/09 03:36:28;;;;;;;15.23;7.43;;;;;;;13.13;100.00;102108.66;7391371;19;20431;-61
2022/07/09 03:39:00;;;;;;;20.30;6.80;;;;;;;13.08;100.00;102111.03;7385672;19;20428;-61
2022/07/09 03:41:29;;;;;;;17.73;6.40;;;;;;;13.15;100.00;102122.63;7391383;19;20928;-61
2022/07/09 03:43:59;;;;;;;18.60;7.33;;;;;;;13.16;100.00;102120.91;7373874;19;20413;-61
2022/07/09 03:46:29;;;;;;;12.70;6.10;;;;;;;13.20;100.00;102112.50;7391538;19;20424;-61
2022/07/09 03:48:58;;;;;;;18.03;6.70;;;;;;;13.22;100.00;102106.59;7380025;19;20791;-60
2022/07/09 03:51:28;;;;;;;12.80;6.07;;;;;;;13.22;100.00;102103.09;7393116;19;20462;-61
2022/07/09 03:54:00;;;;;;;19.03;6.73;;;;;;;13.19;100.00;102100.34;7384959;19;20418;-60
2022/07/09 03:56:30;;;;;;;17.73;8.90;;;;;;;13.18;100.00;102104.63;7391265;19;20422;-60
2022/07/09 03:58:59;;;;;;;16.87;6.30;;;;;;;13.21;100.00;102110.00;7385597;19;20425;-61
2022/07/09 04:01:29;;;;;;;14.57;5.83;;;;;;;13.18;100.00;102115.00;7390355;19;20392;-60
2022/07/09 04:03:58;;;;;;;18.47;5.93;;;;;;;13.20;100.00;102115.06;7392913;19;20447;-61
2022/07/09 04:06:28;;;;;;;17.10;6.30;;;;;;;13.18;100.00;102107.22;7397896;19;20418;-61
2022/07/09 04:09:03;;;;;;;16.60;6.60;;;;;;;13.26;100.00;102105.03;7392200;19;20426;-61
2022/07/09 04:11:33;;;;;;;13.23;5.33;;;;;;;13.31;100.00;102119.13;7399841;19;20390;-60
2022/07/09 04:14:03;;;;;;;14.70;6.57;;;;;;;13.30;100.00;102114.75;7388376;19;20953;-61
2022/07/09 04:16:33;;;;;;;13.30;7.17;;;;;;;13.33;100.00;102112.31;7396957;19;20409;-60
2022/07/09 04:19:03;;;;;;;20.07;6.50;;;;;;;13.44;100.00;102114.59;7387881;19;20413;-61
2022/07/09 04:21:32;;;;;;;13.33;7.00;;;;;;;13.38;100.00;102115.13;7396955;19;20385;-60
2022/07/09 04:24:04;;;;;;;18.47;6.90;;;;;;;13.36;100.00;102112.50;7385329;19;20420;-61
2022/07/09 04:26:34;;;;;;;18.57;6.50;;;;;;;13.41;100.00;102117.00;7396834;19;20505;-60
2022/07/09 04:29:03;;;;;;;14.47;5.70;;;;;;;13.37;100.00;102114.28;7391286;19;20417;-61
2022/07/09 04:31:33;;;;;;;15.90;6.43;;;;;;;13.39;100.00;102123.81;7399040;19;20479;-61
2022/07/09 04:34:03;;;;;;;12.33;6.03;;;;;;;13.32;100.00;102115.72;7388936;19;20421;-60
2022/07/09 04:36:32;;;;;;;11.90;4.97;;;;;;;13.35;100.00;102120.19;7395886;19;20417;-60
2022/07/09 04:39:04;;;;;;;15.17;6.60;;;;;;;13.39;100.00;102116.03;7390090;19;20946;-62
2022/07/09 04:41:34;;;;;;;12.57;6.20;;;;;;;13.39;100.00;102123.81;7396164;19;20400;-60
2022/07/09 04:44:04;;;;;;;22.30;6.37;;;;;;;13.40;100.00;102123.00;7393375;19;20447;-60
2022/07/09 04:46:33;;;;;;;14.53;6.67;;;;;;;13.45;100.00;102121.53;7396369;19;20752;-60
2022/07/09 04:49:03;;;;;;;14.53;6.30;;;;;;;13.46;100.00;102123.34;7388198;19;20431;-61
2022/07/09 04:51:32;;;;;;;14.07;6.50;;;;;;;13.54;100.00;102115.97;7398293;19;20639;-60
2022/07/09 04:54:05;;;;;;;17.17;6.17;;;;;;;13.56;100.00;102125.63;7391551;19;20439;-61
2022/07/09 04:56:34;;;;;;;14.93;6.37;;;;;;;13.57;100.00;102123.91;7397383;19;20431;-61
2022/07/09 04:59:04;;;;;;;13.63;5.97;;;;;;;13.53;100.00;102121.97;7391031;19;20413;-60
2022/07/09 05:01:33;;;;;;;12.33;5.67;;;;;;;13.54;100.00;102121.16;7395940;19;20745;-61
2022/07/09 05:04:03;;;;;;;11.70;6.33;;;;;;;13.60;100.00;102122.34;7390462;19;20447;-61
2022/07/09 05:06:33;;;;;;;10.93;5.90;;;;;;;13.64;100.00;102128.59;7395473;19;20439;-61
2022/07/09 05:09:05;;;;;;;12.93;6.03;;;;;;;13.67;100.00;102117.47;7389585;19;20478;-61
2022/07/09 05:11:35;;;;;;;13.43;6.63;;;;;;;13.74;100.00;102114.41;7397762;19;20382;-61
2022/07/09 05:14:04;;;;;;;14.77;5.93;;;;;;;13.73;100.00;102112.59;7385152;19;20405;-61
2022/07/09 05:16:34;;;;;;;13.10;5.80;;;;;;;13.71;100.00;102124.63;7395356;19;20425;-61
2022/07/09 05:19:04;;;;;;;9.67;5.60;;;;;;;13.73;100.00;102112.59;7385649;19;20422;-61
2022/07/09 05:21:33;;;;;;;16.90;5.47;;;;;;;13.76;100.00;102107.59;7395841;19;20396;-60
2022/07/09 05:24:06;;;;;;;18.40;6.20;;;;;;;13.87;100.00;102121.09;7386154;19;20428;-61
2022/07/09 05:26:36;;;;;;;11.67;5.60;;;;;;;14.01;100.00;102126.97;7395006;19;20428;-61
2022/07/09 05:29:06;;;;;;;10.23;5.90;;;;;;;14.04;100.00;102125.41;7393678;19;20406;-61
2022/07/09 05:31:36;;;;;;;18.03;6.07;;;;;;;14.07;100.00;102128.97;7397175;19;20393;-60
2022/07/09 05:34:07;;;;;;;12.13;5.60;;;;;;;13.98;100.00;102116.41;7395703;19;20427;-60
2022/07/09 05:36:38;;;;;;;10.70;5.27;;;;;;;14.00;100.00;102117.41;7394496;19;20419;-61
2022/07/09 05:39:10;;;;;;;11.90;4.80;;;;;;;14.02;100.00;102119.28;7396444;19;20924;-61
2022/07/09 05:41:40;;;;;;;12.73;5.10;;;;;;;14.18;100.00;102118.31;7395424;19;20393;-61
2022/07/09 05:44:10;;;;;;;17.00;5.83;;;;;;;14.21;100.00;102117.56;7395325;19;20415;-60
2022/07/09 05:46:44;;;;;;;11.33;5.30;;;;;;;14.18;100.00;102115.72;7389253;19;20450;-59
2022/07/09 05:49:13;;;;;;;11.00;5.10;;;;;;;14.26;100.00;102107.41;7396196;19;20422;-60
2022/07/09 05:51:43;;;;;;;11.37;5.30;;;;;;;14.27;100.00;102116.97;7386131;19;20389;-62
2022/07/09 05:54:15;;;;;;;13.03;5.80;;;;;;;14.27;100.00;102106.59;7395540;19;20391;-60
2022/07/09 05:56:45;;;;;;;14.97;5.60;;;;;;;14.26;100.00;102110.88;7387844;19;20463;-61
2022/07/09 05:59:14;;;;;;;10.00;5.73;;;;;;;14.25;100.00;102103.91;7395640;19;20393;-62
2022/07/09 06:01:44;;;;;;;11.07;5.33;;;;;;;14.20;100.00;102096.72;7385741;19;20472;-61
2022/07/09 06:04:13;;;;;;;13.73;5.70;;;;;;;14.18;100.00;102094.94;7395427;19;20384;-61
2022/07/09 06:06:43;;;;;;;10.80;5.90;;;;;;;14.17;100.00;102098.34;7387472;19;20388;-61
2022/07/09 06:09:15;;;;;;;11.87;5.97;;;;;;;14.17;100.00;102095.75;7399950;19;20415;-61
2022/07/09 06:11:45;;;;;;;7.73;5.73;;;;;;;14.10;100.00;102093.66;7388926;19;20393;-60
2022/07/09 06:14:14;;;;;;;11.83;6.03;;;;;;;14.12;100.00;102083.38;7394756;19;20391;-61
2022/07/09 06:16:46;;;;;;;9.93;6.00;;;;;;;14.13;100.00;102087.75;7382237;19;20391;-62
2022/07/09 06:19:16;;;;;;;11.03;6.50;;;;;;;14.12;100.00;102097.25;7395145;19;20393;-62
2022/07/09 06:21:46;;;;;;;13.90;5.77;;;;;;;14.15;100.00;102093.91;7386219;19;20380;-63
2022/07/09 06:24:18;;;;;;;13.53;6.43;;;;;;;14.15;100.00;102097.38;7394302;19;20389;-62
2022/07/09 06:26:48;;;;;;;6.60;4.87;;;;;;;14.21;100.00;102096.81;7384844;19;20402;-62
2022/07/09 06:29:17;;;;;;;11.77;6.33;;;;;;;14.32;100.00;102094.72;7394717;19;20384;-61
2022/07/09 06:31:47;;;;;;;14.00;6.07;;;;;;;14.36;100.00;102101.81;7387852;19;20390;-61
2022/07/09 06:34:17;;;;;;;10.03;6.00;;;;;;;14.37;100.00;102107.91;7393875;19;20378;-61
2022/07/09 06:36:46;;;;;;;12.43;6.57;;;;;;;14.44;100.00;102105.69;7385175;19;20383;-60
2022/07/09 06:42:06;;;;;;;12.30;6.00;;;;;;;14.48;100.00;102106.72;7385461;19;20384;-62
2022/07/09 06:44:36;;;;;;;10.53;5.90;;;;;;;14.56;100.00;102107.09;7395208;19;20421;-62
2022/07/09 06:47:06;;;;;;;11.80;6.20;;;;;;;14.62;100.00;102103.88;7384925;19;20400;-61
2022/07/09 06:49:36;;;;;;;9.57;5.70;;;;;;;14.67;100.00;102105.84;7394742;19;20922;-62
2022/07/09 06:52:07;;;;;;;10.73;6.40;;;;;;;14.78;100.00;102105.50;7386141;19;21032;-62
2022/07/09 06:54:39;;;;;;;11.87;5.77;;;;;;;14.84;100.00;102103.19;7393839;19;20939;-61
2022/07/09 06:57:09;;;;;;;9.60;6.20;;;;;;;14.92;100.00;102108.75;7383328;19;20416;-60
2022/07/09 06:59:39;;;;;;;11.80;6.10;;;;;;;14.97;100.00;102097.72;7394292;19;20394;-60
2022/07/09 07:02:09;;;;;;;17.13;6.60;;;;;;;15.03;100.00;102101.44;7381681;19;20790;-61
2022/07/09 07:04:39;;;;;;;12.87;5.80;;;;;;;15.08;100.00;102105.13;7393505;19;20409;-62
2022/07/09 07:07:08;;;;;;;10.17;6.00;;;;;;;15.13;100.00;102106.22;7386659;19;20970;-60
2022/07/09 07:09:40;;;;;;;9.90;4.87;;;;;;;15.15;100.00;102096.78;7394086;19;20384;-62
2022/07/09 07:12:10;;;;;;;10.23;5.63;;;;;;;15.15;100.00;102101.06;7386065;19;20401;-61
2022/07/09 07:14:40;;;;;;;9.60;5.03;;;;;;;15.19;100.00;102098.69;7392980;19;20403;-61
2022/07/09 07:17:09;;;;;;;9.10;4.90;;;;;;;15.25;100.00;102093.78;7385879;19;20419;-62
2022/07/09 07:19:39;;;;;;;8.63;4.70;;;;;;;15.38;100.00;102104.66;7393785;19;20383;-61
2022/07/09 07:22:08;;;;;;;8.00;4.60;;;;;;;15.46;100.00;102097.22;7384739;19;20418;-62
2022/07/09 07:24:40;;;;;;;12.63;4.90;;;;;;;15.62;100.00;102106.56;7393182;19;20427;-60
2022/07/09 07:27:10;;;;;;;8.50;4.37;;;;;;;15.67;100.00;102107.63;7387450;19;20415;-62
2022/07/09 07:29:40;;;;;;;7.83;4.60;;;;;;;15.79;100.00;102110.75;7393491;19;20389;-61
2022/07/09 07:32:11;;;;;;;8.20;4.20;;;;;;;15.78;100.00;102116.78;7381766;19;20428;-62
2022/07/09 07:34:40;;;;;;;7.23;3.97;;;;;;;15.88;100.00;102111.97;7392470;19;20483;-61
2022/07/09 07:37:10;;;;;;;6.27;3.83;;;;;;;16.00;100.00;102117.69;7378195;19;20425;-61
2022/07/09 07:39:42;;;;;;;7.13;3.47;;;;;;;16.21;100.00;102114.22;7393266;19;20410;-62
2022/07/09 07:42:12;;;;;;;10.47;3.13;;;;;;;16.22;100.00;102105.56;7385769;19;20425;-60
2022/07/09 07:44:41;;;;;;;8.07;3.70;;;;;;;16.25;100.00;102100.47;7392067;19;20419;-61
2022/07/09 07:47:11;;;;;;;7.50;3.40;;;;;;;16.25;100.00;102113.50;7383353;19;20406;-61
2022/07/09 07:49:40;;;;;;;7.33;3.00;;;;;;;16.47;100.00;102103.94;7391488;19;20390;-61
2022/07/09 07:52:10;;;;;;;14.40;2.87;;;;;;;16.68;100.00;102097.75;7383445;19;20412;-61
2022/07/09 07:54:42;;;;;;;7.03;2.87;;;;;;;16.87;100.00;102087.19;7392015;19;20511;-61
2022/07/09 07:57:11;;;;;;;5.93;2.77;;;;;;;17.08;100.00;102096.66;7376479;19;20403;-60
2022/07/09 07:59:41;;;;;;;3.30;1.97;;;;;;;17.05;100.00;102106.09;7392666;19;20393;-61
2022/07/09 08:02:11;;;;;;;6.20;2.83;;;;;;;17.09;100.00;102108.88;7379121;19;20424;-60
2022/07/09 08:04:40;;;;;;;7.00;2.40;;;;;;;17.04;100.00;102105.22;7391720;19;20398;-62
2022/07/09 08:07:10;;;;;;;6.40;2.90;;;;;;;16.86;100.00;102108.88;7384004;19;20445;-61
2022/07/09 08:09:42;;;;;;;6.77;2.77;;;;;;;16.64;100.00;102114.09;7392506;19;20401;-61
2022/07/09 08:12:12;;;;;;;6.83;2.93;;;;;;;16.59;100.00;102104.41;7385455;19;20441;-60
2022/07/09 08:14:42;;;;;;;14.40;5.13;;;;;;;16.62;100.00;102113.16;7393059;19;20440;-61
2022/07/09 08:17:11;;;;;;;5.70;2.80;;;;;;;16.63;100.00;102114.94;7378637;19;20748;-61
2022/07/09 08:19:41;;;;;;;52.53;24.63;;;;;;;16.60;100.00;102114.00;7392110;19;20463;-61
2022/07/09 08:22:10;;;;;;;73.00;26.97;;;;;;;16.59;100.00;102099.19;7378149;19;20453;-60
2022/07/09 08:24:42;;;;;;;16.90;6.03;;;;;;;16.63;100.00;102107.13;7390889;19;20395;-60
2022/07/09 08:27:12;;;;;;;12.03;5.60;;;;;;;16.77;100.00;102111.13;7382631;19;20951;-60
2022/07/09 08:29:42;;;;;;;5.40;3.07;;;;;;;17.02;100.00;102099.03;7392628;19;20795;-62
2022/07/09 08:32:12;;;;;;;7.73;2.70;;;;;;;17.34;100.00;102099.28;7379170;19;20421;-60
2022/07/09 08:34:41;;;;;;;9.80;3.57;;;;;;;17.49;100.00;102098.06;7390520;19;20476;-60
2022/07/09 08:37:11;;;;;;;8.83;3.63;;;;;;;17.50;100.00;102102.44;7382449;19;20420;-62
2022/07/09 08:39:43;;;;;;;9.93;2.50;;;;;;;17.44;100.00;102107.47;7391901;19;20384;-61
2022/07/09 08:42:13;;;;;;;3.83;2.67;;;;;;;17.19;100.00;102090.94;7380815;19;20424;-62
2022/07/09 08:44:43;;;;;;;13.43;4.93;;;;;;;17.16;100.00;102096.94;7392412;19;20420;-61
2022/07/09 08:47:13;;;;;;;9.50;4.40;;;;;;;17.44;100.00;102105.75;7383252;19;20417;-61
2022/07/09 08:49:44;;;;;;;11.67;5.77;;;;;;;17.70;100.00;102099.63;7396636;19;20409;-60
2022/07/09 08:52:13;;;;;;;8.13;2.43;;;;;;;18.00;100.00;102112.78;7387887;19;20413;-61
2022/07/09 08:54:46;;;;;;;5.63;2.40;;;;;;;18.31;100.00;102105.09;7397595;19;20400;-60
2022/07/09 08:57:16;;;;;;;5.60;2.47;;;;;;;18.63;100.00;102102.59;7388597;19;20925;-61
2022/07/09 08:59:46;;;;;;;6.20;2.70;;;;;;;18.70;100.00;102119.31;7398318;19;20400;-61
2022/07/09 09:02:19;;;;;;;11.70;2.60;;;;;;;18.46;100.00;102142.16;7389171;19;20446;-62
2022/07/09 09:04:49;;;;;;;9.77;3.90;;;;;;;18.34;100.00;102154.81;7397015;19;20402;-62
2022/07/09 09:07:21;;;;;;;8.37;3.00;;;;;;;18.22;100.00;102158.81;7391094;19;20422;-61
2022/07/09 09:09:53;;;;;;;12.53;3.87;;;;;;;18.05;100.00;102154.75;7398313;19;20386;-60
2022/07/09 09:12:29;;;;;;;18.63;6.73;;;;;;;18.00;100.00;102157.19;7389718;19;20417;-61
2022/07/09 09:14:59;;;;;;;3.90;2.17;;;;;;;18.16;100.00;102173.41;7396696;19;20933;-62
2022/07/09 09:17:29;;;;;;;9.93;4.13;;;;;;;18.30;100.00;102176.47;7383971;19;20414;-61
2022/07/09 09:19:58;;;;;;;5.47;2.60;;;;;;;18.57;100.00;102175.56;7397672;19;20398;-62
2022/07/09 09:22:28;;;;;;;7.00;3.10;;;;;;;18.66;100.00;102188.91;7391449;19;20935;-61
2022/07/09 09:25:00;;;;;;;6.70;2.30;;;;;;;18.50;100.00;102195.38;7396298;19;20417;-60
2022/07/09 09:27:31;;;;;;;5.93;2.63;;;;;;;18.44;100.00;102198.69;7390729;19;20418;-61
2022/07/09 09:30:02;;;;;;;4.53;2.33;;;;;;;18.56;100.00;102189.47;7397515;19;20398;-60
2022/07/09 09:32:32;;;;;;;22.03;12.37;;;;;;;18.47;100.00;102185.72;7384966;19;20415;-61
2022/07/09 09:35:05;;;;;;;5.57;3.10;;;;;;;18.32;100.00;102207.00;7395699;19;20987;-60
2022/07/09 09:37:34;;;;;;;15.10;8.23;;;;;;;18.17;100.00;102196.06;7388591;19;20425;-61
2022/07/09 09:40:13;;;;;;;5.93;2.40;;;;;;;18.29;100.00;102185.13;7396929;19;20394;-61
2022/07/09 09:42:44;;;;;;;7.13;2.87;;;;;;;18.46;100.00;102183.09;7387570;19;20431;-61
2022/07/09 09:45:16;;;;;;;5.33;2.67;;;;;;;18.63;100.00;102176.63;7394961;19;20434;-62
2022/07/09 09:47:48;;;;;;;6.13;3.50;;;;;;;18.64;100.00;102172.31;7389048;19;20429;-61
2022/07/09 09:50:22;;;;;;;8.33;4.70;;;;;;;18.77;100.00;102189.25;7396246;19;20458;-61
2022/07/09 09:52:54;;;;;;;7.23;3.63;;;;;;;19.00;100.00;102192.56;7388028;19;20419;-60
2022/07/09 09:55:26;;;;;;;7.47;2.70;;;;;;;19.14;100.00;102192.09;7394643;19;20429;-61
2022/07/09 09:57:56;;;;;;;19.73;6.60;;;;;;;19.32;100.00;102203.94;7389813;19;20403;-62
2022/07/09 10:00:26;;;;;;;32.47;9.87;;;;;;;19.13;100.00;102192.97;7395465;19;20929;-61
2022/07/09 10:02:56;;;;;;;19.80;6.20;;;;;;;18.74;100.00;102191.75;7388132;19;20771;-62
2022/07/09 10:05:25;;;;;;;12.53;5.23;;;;;;;18.67;100.00;102193.28;7394319;19;20478;-60
2022/07/09 10:07:55;;;;;;;9.40;3.40;;;;;;;18.70;100.00;102180.34;7386221;19;20419;-61
2022/07/09 10:10:27;;;;;;;6.40;2.30;;;;;;;18.57;100.00;102183.41;7395516;19;20913;-61
2022/07/09 10:12:57;;;;;;;15.93;5.47;;;;;;;18.93;100.00;102180.16;7375577;19;20807;-62
2022/07/09 10:15:28;;;;;;;7.03;3.13;;;;;;;19.32;100.00;102198.72;7394110;19;20940;-62
2022/07/09 10:17:57;;;;;;;6.30;2.93;;;;;;;19.64;100.00;102206.56;7384165;19;20421;-60
2022/07/09 10:20:36;;;;;;;9.40;2.10;;;;;;;19.52;100.00;102234.16;7395377;19;20399;-61
2022/07/09 10:23:06;;;;;;;8.03;3.40;;;;;;;19.42;100.00;102238.25;7386136;19;20423;-61
2022/07/09 10:25:50;;;;;;;14.60;6.17;;;;;;;19.55;100.00;102243.84;7393867;19;20411;-61
2022/07/09 10:28:21;;;;;;;17.13;8.43;;;;;;;20.08;100.00;102214.75;7381020;19;20407;-62
2022/07/09 10:30:51;;;;;;;7.20;3.40;;;;;;;20.29;100.00;102218.72;7395119;19;20384;-62
2022/07/09 10:33:25;;;;;;;11.60;4.40;;;;;;;20.32;100.00;102213.59;7387472;19;20415;-61
2022/07/09 10:35:55;;;;;;;8.13;1.97;;;;;;;20.00;100.00;102220.63;7393049;19;20414;-62
2022/07/09 10:38:25;;;;;;;11.70;5.60;;;;;;;19.48;100.00;102220.97;7388398;19;20431;-61
2022/07/09 10:41:03;;;;;;;14.77;4.80;;;;;;;19.23;100.00;102209.81;7395183;19;20415;-61
2022/07/09 10:43:45;;;;;;;10.03;5.07;;;;;;;19.03;100.00;102203.13;7385762;19;20441;-62
2022/07/09 10:46:16;;;;;;;5.80;3.13;;;;;;;19.01;100.00;102189.09;7392699;19;20859;-61
2022/07/09 10:48:47;;;;;;;4.83;1.67;;;;;;;19.34;100.00;102203.16;7382648;19;20952;-62
2022/07/09 10:51:22;;;;;;;4.50;2.47;;;;;;;19.86;100.00;102220.22;7396925;19;20384;-60
2022/07/09 10:53:52;;;;;;;5.30;1.80;;;;;;;20.06;100.00;102260.94;7388274;19;20431;-62
2022/07/09 10:56:25;;;;;;;4.57;1.57;;;;;;;20.28;100.00;102276.34;7392909;19;20396;-62
2022/07/09 10:58:55;;;;;;;8.90;3.80;;;;;;;20.50;100.00;102259.41;7383837;19;20422;-60
2022/07/09 11:01:27;;;;;;;2.90;1.60;;;;;;;20.34;100.00;102280.00;7394577;19;21001;-61
2022/07/09 11:03:58;;;;;;;7.93;4.40;;;;;;;20.39;100.00;102261.78;7380054;19;20439;-62
2022/07/09 11:06:29;;;;;;;8.80;2.07;;;;;;;20.04;100.00;102218.13;7392329;19;20427;-61
2022/07/09 11:08:58;;;;;;;15.23;8.60;;;;;;;19.59;100.00;102243.09;7380106;19;20419;-62
2022/07/09 11:11:30;;;;;;;4.30;1.97;;;;;;;19.15;100.00;102241.88;7393541;19;20384;-62
2022/07/09 11:14:00;;;;;;;9.10;4.40;;;;;;;18.89;100.00;102231.47;7384837;19;20416;-60
2022/07/09 11:16:29;;;;;;;7.00;3.60;;;;;;;18.77;100.00;102236.31;7392079;19;20474;-62
2022/07/09 11:19:00;;;;;;;23.23;11.80;;;;;;;18.73;100.00;102234.44;7380743;19;20486;-61
2022/07/09 11:21:29;;;;;;;17.80;10.23;;;;;;;18.97;100.00;102216.00;7394812;19;20495;-60
2022/07/09 11:23:59;;;;;;;12.00;5.90;;;;;;;19.48;100.00;102229.69;7386216;19;20432;-61
2022/07/09 11:26:32;;;;;;;10.23;5.60;;;;;;;19.87;100.00;102235.97;7391709;19;20407;-61
2022/07/09 11:29:02;;;;;;;3.77;1.57;;;;;;;20.01;100.00;102211.91;7384862;19;20493;-61